Time;durP1;ratioP1;P1;durP2;ratioP2;P2;SDS_P1;SDS_P2;PMS_P1;PMS_P2;Temp;Humidity;BMP_temperature;BMP_pressure;BME280_temperature;BME280_humidity;BME280_pressure;Samples;Min_cycle;Max_cycle;Signal;HPM_P1;HPM_P2
2022/02/12 00:00:43;;;;;;;13.80;4.45;;;15.40;67.00;;;;;;4225458;28;20044;-61
2022/02/12 00:03:05;;;;;;;13.02;3.88;;;15.40;67.30;;;;;;4223438;27;20043;-61
2022/02/12 00:05:28;;;;;;;14.30;4.35;;;15.40;67.30;;;;;;4225452;28;20046;-61
2022/02/12 00:07:51;;;;;;;8.20;4.15;;;15.50;67.00;;;;;;4210114;28;20878;-61
2022/02/12 00:10:13;;;;;;;12.00;4.82;;;15.60;66.80;;;;;;4200127;28;20504;-61
2022/02/12 00:12:35;;;;;;;13.38;3.72;;;15.60;66.50;;;;;;4210266;27;20556;-60
2022/02/12 00:14:58;;;;;;;11.38;4.07;;;15.70;66.20;;;;;;4209956;28;20044;-61
2022/02/12 00:17:20;;;;;;;11.02;3.65;;;15.70;66.10;;;;;;4210218;28;20070;-61
2022/02/12 00:19:42;;;;;;;15.38;4.53;;;15.70;65.90;;;;;;4215649;28;20058;-61
2022/02/12 00:22:05;;;;;;;11.82;3.55;;;15.70;65.80;;;;;;4226866;27;20043;-61
2022/02/12 00:24:28;;;;;;;9.60;3.83;;;15.70;65.90;;;;;;4227125;27;20057;-61
2022/02/12 00:26:50;;;;;;;12.30;4.13;;;15.80;65.80;;;;;;4208527;28;20078;-61
2022/02/12 00:29:12;;;;;;;8.55;3.78;;;15.70;65.60;;;;;;4206218;28;20059;-60
2022/02/12 00:31:34;;;;;;;13.23;4.28;;;15.80;65.40;;;;;;4191124;28;20460;-60
2022/02/12 00:33:56;;;;;;;11.38;4.00;;;15.80;65.30;;;;;;4193039;28;20045;-60
2022/02/12 00:36:18;;;;;;;15.23;4.45;;;15.80;65.30;;;;;;4192749;28;20044;-60
2022/02/12 00:38:43;;;;;;;10.52;4.35;;;15.80;65.30;;;;;;4192961;28;20056;-60
2022/02/12 00:41:05;;;;;;;9.25;4.40;;;15.80;65.30;;;;;;4192758;28;20126;-60
2022/02/12 00:43:27;;;;;;;11.75;4.45;;;15.80;65.30;;;;;;4193306;28;20048;-60
2022/02/12 00:45:49;;;;;;;9.25;4.05;;;15.90;65.10;;;;;;4198156;28;20054;-60
2022/02/12 00:48:12;;;;;;;10.30;4.20;;;15.90;65.00;;;;;;4226054;28;20070;-60
2022/02/12 00:50:34;;;;;;;12.02;4.53;;;15.90;64.80;;;;;;4213556;28;20078;-60
2022/02/12 00:52:56;;;;;;;14.88;5.25;;;15.90;64.80;;;;;;4209487;28;20047;-60
2022/02/12 00:55:20;;;;;;;7.38;3.50;;;15.90;64.80;;;;;;4209714;28;20048;-60
2022/02/12 00:57:41;;;;;;;11.40;3.45;;;16.00;64.90;;;;;;4209903;28;20493;-60
2022/02/12 01:00:05;;;;;;;7.28;3.33;;;16.00;64.60;;;;;;4217299;28;20051;-60
2022/02/12 01:02:28;;;;;;;7.20;3.53;;;16.10;64.40;;;;;;4211083;28;20090;-59
2022/02/12 01:04:50;;;;;;;9.07;3.75;;;16.10;64.20;;;;;;4214852;28;20051;-59
2022/02/12 01:07:12;;;;;;;8.90;3.10;;;16.10;64.00;;;;;;4209350;28;20067;-60
2022/02/12 01:09:37;;;;;;;7.93;2.85;;;16.10;64.00;;;;;;4212901;28;20474;-60
2022/02/12 01:12:03;;;;;;;7.10;3.28;;;16.10;64.20;;;;;;4225995;27;20486;-60
2022/02/12 01:14:26;;;;;;;9.30;3.10;;;16.00;64.40;;;;;;4225806;28;20516;-60
2022/02/12 01:16:48;;;;;;;10.45;3.03;;;16.00;64.40;;;;;;4226087;28;20047;-60
2022/02/12 01:19:10;;;;;;;7.93;2.65;;;16.00;64.30;;;;;;4223780;28;20134;-60
2022/02/12 01:21:32;;;;;;;6.95;2.92;;;16.00;64.20;;;;;;4209142;28;20051;-60
2022/02/12 01:23:55;;;;;;;9.38;2.50;;;16.00;64.30;;;;;;4209179;28;20076;-60
2022/02/12 01:26:18;;;;;;;8.13;2.60;;;16.00;64.20;;;;;;4209119;28;20079;-61
2022/02/12 01:28:41;;;;;;;8.45;2.60;;;16.00;64.20;;;;;;4209273;28;20457;-61
2022/02/12 01:31:03;;;;;;;9.70;3.15;;;16.00;64.30;;;;;;4224727;28;20044;-60
2022/02/12 01:33:25;;;;;;;7.80;2.83;;;15.90;64.60;;;;;;4225874;28;20413;-60
2022/02/12 01:35:48;;;;;;;11.63;3.10;;;15.80;64.70;;;;;;4224551;28;20100;-60
2022/02/12 01:38:10;;;;;;;7.70;2.80;;;15.80;64.80;;;;;;4192370;28;20083;-59
2022/02/12 01:40:32;;;;;;;9.68;2.80;;;15.80;64.80;;;;;;4215105;28;20380;-61
2022/02/12 01:42:55;;;;;;;8.68;2.80;;;15.90;64.70;;;;;;4226990;28;20407;-60
2022/02/12 01:45:19;;;;;;;7.57;2.45;;;15.90;64.60;;;;;;4229244;27;20516;-60
2022/02/12 01:47:41;;;;;;;9.02;2.70;;;15.90;64.50;;;;;;4229053;27;20044;-61
2022/02/12 01:50:04;;;;;;;13.40;2.97;;;15.90;64.50;;;;;;4221876;28;20083;-60
2022/02/12 01:52:31;;;;;;;5.88;2.33;;;16.00;64.40;;;;;;4195410;28;20056;-61
2022/02/12 01:54:53;;;;;;;6.93;2.78;;;16.10;64.10;;;;;;4178989;28;20120;-61
2022/02/12 01:57:16;;;;;;;11.70;3.65;;;16.20;63.70;;;;;;4190314;28;20106;-60
2022/02/12 01:59:40;;;;;;;15.25;3.40;;;16.30;63.50;;;;;;4198335;28;20089;-60
2022/02/12 02:02:04;;;;;;;9.13;3.08;;;16.30;63.30;;;;;;4212204;28;20058;-61
2022/02/12 02:04:27;;;;;;;8.38;2.58;;;16.30;63.20;;;;;;4212140;28;20125;-60
2022/02/12 02:06:49;;;;;;;6.18;2.78;;;16.30;63.20;;;;;;4212034;28;20052;-61
2022/02/12 02:09:11;;;;;;;9.38;2.75;;;16.20;63.20;;;;;;4227158;27;20051;-61
2022/02/12 02:11:34;;;;;;;6.72;2.55;;;16.10;63.40;;;;;;4226992;27;20054;-61
2022/02/12 02:13:56;;;;;;;7.88;2.30;;;16.10;63.60;;;;;;4228833;27;20139;-61
2022/02/12 02:16:18;;;;;;;14.80;3.33;;;16.10;63.70;;;;;;4228934;27;20046;-61
2022/02/12 02:18:42;;;;;;;6.57;2.70;;;16.10;63.80;;;;;;4220099;28;20059;-60
2022/02/12 02:21:05;;;;;;;8.50;2.70;;;16.00;63.90;;;;;;4211768;28;20062;-61
2022/02/12 02:23:29;;;;;;;10.98;2.70;;;16.00;63.90;;;;;;4211838;28;20044;-60
2022/02/12 02:25:51;;;;;;;8.75;2.78;;;16.00;63.90;;;;;;4211630;28;20066;-59
2022/02/12 02:28:13;;;;;;;8.48;3.15;;;16.00;63.90;;;;;;4216890;27;20039;-60
2022/02/12 02:30:36;;;;;;;6.85;2.40;;;16.10;63.90;;;;;;4228578;27;20052;-60
2022/02/12 02:32:59;;;;;;;7.00;2.15;;;16.10;64.70;;;;;;4226868;27;20053;-60
2022/02/12 02:35:22;;;;;;;10.00;2.78;;;16.10;63.80;;;;;;4228749;27;20112;-60
2022/02/12 02:37:44;;;;;;;7.07;2.95;;;16.10;63.70;;;;;;4228060;27;20048;-60
2022/02/12 02:40:17;;;;;;;7.45;2.47;;;16.20;63.50;;;;;;4226516;28;20054;-60
2022/02/12 02:42:41;;;;;;;5.30;2.50;;;16.20;63.20;;;;;;4228080;28;20054;-60
2022/02/12 02:45:04;;;;;;;12.02;2.97;;;16.30;63.10;;;;;;4226514;27;20044;-60
2022/02/12 02:47:40;;;;;;;6.57;2.50;;;16.30;63.00;;;;;;4228224;27;20525;-61
2022/02/12 02:50:02;;;;;;;8.07;2.95;;;16.30;62.80;;;;;;4211468;28;20048;-61
2022/02/12 02:57:47;;;;;;;7.13;2.55;;;16.30;63.10;;;;;;4211307;28;20048;-60
2022/02/12 03:00:10;;;;;;;6.30;2.60;;;16.30;62.90;;;;;;4194784;28;20057;-61
2022/02/12 03:02:32;;;;;;;9.15;3.10;;;16.30;62.80;;;;;;4210969;28;20058;-60
2022/02/12 03:04:54;;;;;;;10.75;2.50;;;16.20;62.80;;;;;;4211336;28;20508;-60
2022/02/12 03:07:17;;;;;;;9.30;3.10;;;16.20;63.00;;;;;;4211105;28;20040;-60
2022/02/12 03:09:39;;;;;;;10.40;3.40;;;16.20;63.10;;;;;;4226197;27;20514;-60
2022/02/12 03:12:01;;;;;;;8.63;2.60;;;16.10;63.30;;;;;;4211200;28;20048;-60
2022/02/12 03:14:24;;;;;;;10.35;2.92;;;16.10;63.40;;;;;;4211087;28;20052;-60
2022/02/12 03:16:47;;;;;;;9.05;2.78;;;16.10;63.40;;;;;;4223131;27;20108;-60
2022/02/12 03:19:09;;;;;;;7.13;2.28;;;16.20;63.20;;;;;;4216398;27;20048;-60
2022/02/12 03:21:31;;;;;;;11.32;2.90;;;16.20;63.20;;;;;;4210977;28;20131;-61
2022/02/12 03:23:53;;;;;;;7.30;2.53;;;16.10;63.20;;;;;;4210733;28;20445;-59
2022/02/12 03:26:16;;;;;;;5.00;2.58;;;16.10;63.40;;;;;;4211140;28;20142;-59
2022/02/12 03:28:38;;;;;;;10.30;3.10;;;16.10;63.40;;;;;;4217440;28;20118;-60
2022/02/12 03:31:01;;;;;;;14.13;3.22;;;16.00;63.50;;;;;;4227973;27;20054;-60
2022/02/12 03:33:23;;;;;;;8.23;2.90;;;16.00;63.60;;;;;;4215732;28;20495;-60
2022/02/12 03:35:48;;;;;;;8.75;2.47;;;15.90;63.70;;;;;;4210895;27;20349;-59
2022/02/12 03:38:12;;;;;;;5.35;2.75;;;15.90;63.80;;;;;;4210318;28;20052;-59
2022/02/12 03:40:35;;;;;;;10.20;3.10;;;15.80;63.90;;;;;;4210913;28;20052;-59
2022/02/12 03:42:57;;;;;;;10.35;3.45;;;15.80;64.20;;;;;;4210473;28;20775;-60
2022/02/12 03:45:22;;;;;;;14.73;3.53;;;15.80;64.50;;;;;;4210459;28;20047;-60
2022/02/12 03:47:45;;;;;;;6.25;2.28;;;15.70;64.40;;;;;;4197574;28;20154;-60
2022/02/12 03:50:07;;;;;;;6.63;2.65;;;15.70;64.40;;;;;;4194726;28;20140;-60
2022/02/12 03:52:30;;;;;;;8.75;2.65;;;15.70;64.60;;;;;;4194000;28;20092;-60
2022/02/12 03:54:52;;;;;;;8.68;2.58;;;15.60;64.70;;;;;;4193605;28;20429;-60
2022/02/12 03:57:14;;;;;;;9.13;3.10;;;15.60;64.80;;;;;;4201767;28;20409;-59
2022/02/12 03:59:41;;;;;;;12.02;3.00;;;15.70;64.70;;;;;;4210137;28;20050;-58
2022/02/12 04:02:03;;;;;;;8.70;3.28;;;15.80;64.60;;;;;;4210523;28;20143;-60
2022/02/12 04:04:26;;;;;;;10.93;3.05;;;15.80;64.30;;;;;;4210270;28;20464;-60
2022/02/12 04:06:49;;;;;;;9.00;2.72;;;15.80;64.10;;;;;;4204317;28;20050;-60
2022/02/12 04:09:11;;;;;;;7.95;2.78;;;15.80;63.90;;;;;;4209950;28;20101;-60
2022/02/12 04:11:33;;;;;;;5.15;2.72;;;15.80;63.90;;;;;;4226929;27;20134;-60
2022/02/12 04:13:55;;;;;;;6.05;2.97;;;15.80;63.70;;;;;;4209688;28;20075;-60
2022/02/12 04:16:18;;;;;;;6.22;2.65;;;15.80;63.80;;;;;;4209286;28;20102;-60
2022/02/12 04:18:40;;;;;;;10.15;3.05;;;15.80;63.70;;;;;;4176440;28;20048;-60
2022/02/12 04:21:05;;;;;;;10.70;2.95;;;15.80;63.70;;;;;;4177003;28;20091;-61
2022/02/12 04:23:27;;;;;;;9.63;2.60;;;15.80;63.70;;;;;;4203033;28;20062;-61
2022/02/12 04:25:51;;;;;;;10.85;2.75;;;15.80;63.90;;;;;;4217603;27;21586;-60
2022/02/12 04:28:13;;;;;;;9.32;3.33;;;15.80;64.00;;;;;;4210038;28;20456;-61
2022/02/12 04:30:36;;;;;;;7.38;2.22;;;15.80;64.00;;;;;;4209955;28;20055;-61
2022/02/12 04:32:58;;;;;;;7.90;2.40;;;15.80;63.80;;;;;;4210031;28;20072;-61
2022/02/12 04:35:23;;;;;;;10.30;2.95;;;15.90;63.60;;;;;;4213869;27;20559;-60
2022/02/12 04:37:47;;;;;;;9.88;2.95;;;15.90;63.30;;;;;;4226803;27;20112;-61
2022/02/12 04:40:10;;;;;;;6.00;2.50;;;16.00;63.10;;;;;;4225002;28;20418;-60
2022/02/12 04:42:32;;;;;;;6.00;2.40;;;16.00;62.90;;;;;;4192678;28;20392;-60
2022/02/12 04:44:55;;;;;;;9.07;2.70;;;16.00;62.90;;;;;;4193342;28;20141;-61
2022/02/12 04:47:19;;;;;;;5.63;2.80;;;16.00;62.80;;;;;;4226513;27;20051;-61
2022/02/12 04:49:41;;;;;;;10.85;2.63;;;15.90;63.00;;;;;;4225212;28;20051;-61
2022/02/12 04:52:04;;;;;;;9.40;3.03;;;15.90;63.20;;;;;;4226658;28;20062;-61
2022/02/12 04:54:28;;;;;;;11.55;3.53;;;16.00;63.10;;;;;;4226533;28;20126;-60
2022/02/12 04:56:50;;;;;;;7.45;2.90;;;16.00;62.90;;;;;;4209529;28;20047;-60
2022/02/12 04:59:13;;;;;;;6.45;2.90;;;16.10;62.60;;;;;;4192626;28;20082;-60
2022/02/12 05:01:35;;;;;;;12.38;2.50;;;16.10;62.40;;;;;;4192517;28;20086;-60
2022/02/12 05:03:57;;;;;;;9.43;3.30;;;16.20;62.30;;;;;;4192581;28;20051;-60
2022/02/12 05:06:21;;;;;;;11.18;3.35;;;16.20;62.40;;;;;;4199092;28;20048;-60
2022/02/12 05:08:43;;;;;;;9.68;3.10;;;16.20;62.20;;;;;;4209064;28;20487;-59
2022/02/12 05:11:07;;;;;;;9.55;2.90;;;16.30;61.90;;;;;;4209388;28;20078;-60
2022/02/12 05:13:29;;;;;;;6.95;2.85;;;16.40;61.50;;;;;;4209635;28;21114;-59
2022/02/12 05:15:50;;;;;;;7.22;3.05;;;16.50;61.20;;;;;;4202831;28;20498;-59
2022/02/12 05:18:12;;;;;;;11.55;3.08;;;16.50;61.00;;;;;;4208991;28;20128;-59
2022/02/12 05:20:35;;;;;;;10.93;3.13;;;16.50;60.90;;;;;;4209424;28;20052;-59
2022/02/12 05:22:57;;;;;;;12.02;3.42;;;16.40;60.90;;;;;;4209121;28;20036;-59
2022/02/12 05:25:19;;;;;;;7.25;3.15;;;16.40;61.30;;;;;;4204689;28;20392;-60
2022/02/12 05:27:43;;;;;;;7.95;2.97;;;16.30;62.30;;;;;;4209335;28;20712;-59
2022/02/12 05:30:06;;;;;;;9.30;3.05;;;16.30;61.70;;;;;;4225781;27;20134;-60
2022/02/12 05:32:28;;;;;;;8.85;2.97;;;16.30;61.80;;;;;;4224349;28;20043;-60
2022/02/12 05:34:51;;;;;;;12.43;2.92;;;16.30;61.70;;;;;;4196540;28;20877;-59
2022/02/12 05:37:13;;;;;;;10.23;3.50;;;16.30;61.80;;;;;;4192561;28;20496;-60
2022/02/12 05:39:36;;;;;;;8.75;2.92;;;16.30;61.60;;;;;;4192229;28;20052;-60
2022/02/12 05:41:58;;;;;;;10.07;3.42;;;16.20;61.60;;;;;;4192360;28;20051;-60
2022/02/12 05:44:21;;;;;;;11.02;3.08;;;16.20;61.70;;;;;;4200147;28;20047;-60
2022/02/12 05:46:44;;;;;;;7.47;3.67;;;16.20;61.80;;;;;;4225900;27;20125;-60
2022/02/12 05:49:06;;;;;;;9.77;3.53;;;16.10;62.00;;;;;;4207563;28;20055;-60
2022/02/12 05:51:31;;;;;;;11.48;3.70;;;16.10;62.20;;;;;;4224473;28;20096;-60
2022/02/12 05:53:53;;;;;;;11.15;3.35;;;16.10;62.20;;;;;;4221286;28;20549;-60
2022/02/12 05:56:16;;;;;;;7.28;2.83;;;16.10;62.40;;;;;;4209072;28;20048;-60
2022/02/12 05:58:38;;;;;;;8.55;3.42;;;16.10;62.30;;;;;;4208984;28;20055;-60
2022/02/12 06:01:01;;;;;;;14.23;3.95;;;16.20;62.10;;;;;;4209319;28;20044;-60
2022/02/12 06:03:24;;;;;;;7.32;3.40;;;16.20;61.80;;;;;;4208834;28;20056;-60
2022/02/12 06:05:46;;;;;;;11.32;3.88;;;16.20;61.70;;;;;;4198628;28;20101;-60
2022/02/12 06:08:08;;;;;;;13.50;3.70;;;16.20;61.80;;;;;;4208947;28;20754;-60
2022/02/12 06:10:30;;;;;;;7.97;3.15;;;16.10;61.90;;;;;;4209047;28;20078;-60
2022/02/12 06:12:53;;;;;;;12.45;3.75;;;16.10;61.90;;;;;;4208767;28;20052;-60
2022/02/12 06:15:16;;;;;;;8.35;3.08;;;16.00;62.00;;;;;;4223401;28;20040;-60
2022/02/12 06:17:40;;;;;;;5.90;3.08;;;16.00;62.30;;;;;;4225544;27;20132;-60
2022/02/12 06:20:03;;;;;;;11.88;4.15;;;16.00;62.40;;;;;;4225686;28;20055;-60
2022/02/12 06:22:27;;;;;;;8.65;3.67;;;16.00;62.50;;;;;;4225576;28;20130;-60
2022/02/12 06:24:51;;;;;;;8.23;3.53;;;16.00;62.40;;;;;;4214086;28;20051;-60
2022/02/12 06:27:13;;;;;;;6.85;3.42;;;16.10;62.20;;;;;;4215523;28;20138;-60
2022/02/12 06:29:36;;;;;;;13.82;4.15;;;16.10;62.00;;;;;;4209462;28;20047;-60
2022/02/12 06:31:58;;;;;;;10.80;3.88;;;16.10;61.90;;;;;;4211770;28;20117;-60
2022/02/12 06:34:22;;;;;;;8.30;3.08;;;16.10;62.00;;;;;;4205010;28;20048;-60
2022/02/12 06:36:45;;;;;;;8.07;3.70;;;16.10;62.10;;;;;;4194890;28;20099;-60
2022/02/12 06:39:07;;;;;;;7.78;4.13;;;16.10;62.00;;;;;;4194906;28;20059;-61
2022/02/12 06:41:29;;;;;;;12.40;3.88;;;16.10;61.80;;;;;;4196049;28;20504;-61
2022/02/12 06:43:51;;;;;;;7.70;3.53;;;16.10;61.70;;;;;;4197027;28;20361;-61
2022/02/12 06:46:13;;;;;;;7.47;3.08;;;16.10;61.70;;;;;;4211389;28;20044;-60
2022/02/12 06:48:36;;;;;;;8.38;3.58;;;16.10;61.90;;;;;;4206908;28;20052;-60
2022/02/12 06:50:59;;;;;;;5.25;3.35;;;16.10;61.80;;;;;;4193196;28;20102;-61
2022/02/12 06:53:21;;;;;;;13.88;4.10;;;16.30;61.50;;;;;;4194481;28;20051;-60
2022/02/12 06:55:43;;;;;;;9.60;3.58;;;16.40;61.30;;;;;;4196044;28;20048;-60
2022/02/12 06:58:06;;;;;;;10.43;3.80;;;16.40;61.00;;;;;;4195469;28;20561;-60
2022/02/12 07:00:30;;;;;;;12.48;3.63;;;16.40;60.90;;;;;;4194744;28;20041;-61
2022/02/12 07:02:53;;;;;;;9.88;3.45;;;16.40;61.00;;;;;;4194484;28;20048;-61
2022/02/12 07:05:15;;;;;;;7.38;3.60;;;16.30;61.10;;;;;;4207509;28;20580;-61
2022/02/12 07:07:46;;;;;;;14.90;4.22;;;16.30;61.20;;;;;;4210948;28;20463;-61
2022/02/12 07:10:08;;;;;;;8.10;4.05;;;16.30;61.50;;;;;;4178583;28;20131;-61
2022/02/12 07:12:31;;;;;;;9.55;3.65;;;16.30;61.80;;;;;;4211192;28;20040;-61
2022/02/12 07:14:52;;;;;;;13.30;4.18;;;16.20;62.00;;;;;;4221245;27;20079;-60
2022/02/12 07:17:15;;;;;;;11.27;4.20;;;16.20;61.90;;;;;;4226368;27;20044;-61
2022/02/12 07:19:37;;;;;;;12.57;4.25;;;16.30;61.70;;;;;;4204850;28;20075;-61
2022/02/12 07:22:00;;;;;;;9.15;4.03;;;16.30;61.50;;;;;;4211135;27;20062;-60
2022/02/12 07:24:23;;;;;;;10.38;3.92;;;16.30;61.50;;;;;;4217264;27;20138;-60
2022/02/12 07:26:46;;;;;;;7.93;3.83;;;16.30;61.60;;;;;;4221469;28;20043;-61
2022/02/12 07:29:08;;;;;;;14.73;4.82;;;16.20;61.70;;;;;;4210363;28;20134;-59
2022/02/12 07:31:32;;;;;;;9.38;4.25;;;16.20;61.80;;;;;;4210550;28;20131;-60
2022/02/12 07:33:54;;;;;;;10.52;4.55;;;16.20;61.90;;;;;;4197103;28;20044;-60
2022/02/12 07:36:16;;;;;;;9.98;3.95;;;16.30;61.90;;;;;;4227746;27;20134;-60
2022/02/12 07:38:39;;;;;;;10.45;4.57;;;16.30;61.80;;;;;;4225974;28;20106;-60
2022/02/12 07:41:03;;;;;;;9.15;4.38;;;16.30;61.70;;;;;;4210376;28;20048;-60
2022/02/12 07:43:24;;;;;;;14.23;4.50;;;16.40;61.50;;;;;;4210740;28;20048;-60
2022/02/12 07:45:46;;;;;;;11.20;4.80;;;16.40;61.40;;;;;;4210602;27;20092;-60
2022/02/12 07:48:09;;;;;;;8.55;4.32;;;16.50;60.80;;;;;;4226187;27;20047;-61
2022/02/12 07:50:31;;;;;;;14.10;4.82;;;16.40;60.20;;;;;;4210824;28;20051;-61
2022/02/12 07:52:54;;;;;;;12.30;4.32;;;16.40;59.80;;;;;;4227009;27;20051;-61
2022/02/12 07:55:17;;;;;;;13.90;4.03;;;16.30;59.50;;;;;;4197961;28;20051;-61
2022/02/12 07:57:40;;;;;;;7.15;3.38;;;16.30;59.20;;;;;;4193807;28;20117;-60
2022/02/12 08:00:04;;;;;;;10.13;4.50;;;16.30;58.70;;;;;;4193967;28;20056;-60
2022/02/12 08:02:32;;;;;;;10.52;4.35;;;16.20;58.30;;;;;;4193653;28;20044;-60
2022/02/12 08:04:54;;;;;;;11.25;4.30;;;16.20;57.90;;;;;;4194789;28;20448;-60
2022/02/12 08:07:28;;;;;;;10.85;4.45;;;16.20;57.60;;;;;;4227185;27;20101;-61
2022/02/12 08:09:51;;;;;;;15.23;5.00;;;16.10;57.50;;;;;;4226807;28;20047;-60
2022/02/12 08:12:14;;;;;;;13.82;4.97;;;16.10;58.00;;;;;;4210175;28;20070;-60
2022/02/12 08:14:37;;;;;;;13.88;4.50;;;16.20;57.90;;;;;;4203640;28;20079;-61
2022/02/12 08:16:59;;;;;;;14.05;4.10;;;16.20;57.90;;;;;;4193326;28;20052;-61
2022/02/12 08:19:22;;;;;;;6.88;3.78;;;16.20;57.60;;;;;;4210260;28;20046;-61
2022/02/12 08:21:44;;;;;;;10.60;3.70;;;16.20;57.00;;;;;;4226856;28;20040;-59
2022/02/12 08:24:07;;;;;;;10.18;4.57;;;16.20;57.40;;;;;;4224864;28;20483;-61
2022/02/12 08:26:29;;;;;;;7.97;3.83;;;16.20;56.10;;;;;;4217809;28;20065;-61
2022/02/12 08:28:51;;;;;;;15.13;5.15;;;16.20;55.60;;;;;;4225423;28;20144;-60
2022/02/12 08:31:15;;;;;;;12.68;4.97;;;16.40;54.90;;;;;;4213914;28;20052;-60
2022/02/12 08:33:37;;;;;;;9.43;4.65;;;16.40;54.20;;;;;;4220460;28;20142;-60
2022/02/12 08:35:59;;;;;;;12.73;4.40;;;16.40;53.80;;;;;;4224704;27;20105;-60
2022/02/12 08:38:21;;;;;;;13.52;5.43;;;16.40;53.80;;;;;;4215817;27;20066;-60
2022/02/12 08:40:45;;;;;;;15.90;5.70;;;16.40;53.80;;;;;;4197281;28;20051;-60
2022/02/12 08:43:07;;;;;;;14.48;5.07;;;16.30;53.80;;;;;;4205640;28;20043;-61
2022/02/12 08:45:30;;;;;;;12.50;5.45;;;16.30;53.90;;;;;;4193213;28;20800;-60
2022/02/12 08:47:53;;;;;;;8.88;3.13;;;16.20;54.00;;;;;;4213817;28;20109;-60
2022/02/12 08:50:16;;;;;;;11.63;4.30;;;16.10;54.30;;;;;;4192859;28;20071;-60
2022/02/12 08:52:38;;;;;;;12.05;5.28;;;16.10;55.30;;;;;;4215794;28;20138;-60
2022/02/12 08:55:01;;;;;;;8.10;4.82;;;16.10;54.30;;;;;;4206560;28;20415;-60
2022/02/12 08:57:23;;;;;;;8.90;4.00;;;16.00;54.00;;;;;;4211609;28;20044;-60
2022/02/12 08:59:45;;;;;;;11.20;5.28;;;16.00;54.70;;;;;;4209363;28;20531;-60
2022/02/12 09:02:09;;;;;;;9.45;4.30;;;15.90;54.10;;;;;;4209908;28;20387;-60
2022/02/12 09:04:34;;;;;;;13.95;4.50;;;15.90;54.30;;;;;;4224178;28;20052;-61
2022/02/12 09:06:57;;;;;;;12.77;4.72;;;15.80;54.10;;;;;;4226488;28;20058;-60
2022/02/12 09:09:20;;;;;;;10.95;4.72;;;15.80;54.70;;;;;;4213105;28;20128;-61
2022/02/12 09:11:45;;;;;;;8.82;4.35;;;15.80;53.90;;;;;;4209360;28;20059;-60
2022/02/12 09:14:08;;;;;;;9.45;4.90;;;15.80;53.90;;;;;;4214952;28;20496;-61
2022/02/12 09:16:30;;;;;;;10.60;4.45;;;15.80;53.60;;;;;;4207781;28;20128;-60
2022/02/12 09:18:53;;;;;;;7.05;3.30;;;15.80;53.30;;;;;;4223986;28;20051;-60
2022/02/12 09:21:17;;;;;;;12.35;5.13;;;15.80;53.00;;;;;;4222683;28;20040;-61
2022/02/12 09:23:39;;;;;;;9.98;4.60;;;15.80;52.50;;;;;;4217098;28;20069;-60
2022/02/12 09:26:02;;;;;;;12.77;5.18;;;15.80;52.10;;;;;;4226004;28;20437;-60
2022/02/12 09:28:24;;;;;;;8.95;4.32;;;15.90;51.60;;;;;;4195480;28;20131;-60
2022/02/12 09:30:46;;;;;;;10.45;4.00;;;15.90;51.30;;;;;;4195869;28;20048;-60
2022/02/12 09:33:09;;;;;;;9.13;5.03;;;15.90;51.30;;;;;;4183975;28;20057;-60
2022/02/12 09:35:44;;;;;;;10.18;4.78;;;15.90;51.40;;;;;;4197183;28;20070;-60
2022/02/12 09:38:08;;;;;;;10.73;4.75;;;15.90;51.20;;;;;;4197405;28;20408;-60
2022/02/12 09:40:32;;;;;;;10.07;4.13;;;15.90;51.90;;;;;;4192951;28;20097;-60
2022/02/12 09:43:08;;;;;;;4.53;2.53;;;15.80;51.10;;;;;;4205134;28;20512;-60
2022/02/12 09:45:40;;;;;;;10.88;4.40;;;15.80;51.10;;;;;;4190989;28;20053;-60
2022/02/12 09:48:04;;;;;;;10.90;4.13;;;15.80;51.80;;;;;;4183333;28;20054;-60
2022/02/12 09:50:26;;;;;;;13.18;3.92;;;15.80;51.70;;;;;;4192512;28;20037;-60
2022/02/12 09:52:51;;;;;;;8.25;3.20;;;15.70;50.90;;;;;;4181715;28;20051;-60
2022/02/12 09:55:16;;;;;;;12.82;4.63;;;15.80;50.90;;;;;;4205700;28;20073;-60
2022/02/12 09:57:38;;;;;;;7.95;3.53;;;15.70;51.10;;;;;;4202111;27;20476;-60
2022/02/12 10:00:03;;;;;;;12.60;4.53;;;15.60;51.30;;;;;;4199047;28;20183;-61
2022/02/12 10:02:27;;;;;;;14.13;4.30;;;15.60;51.30;;;;;;4204097;28;20051;-60
2022/02/12 10:05:26;;;;;;;7.60;3.75;;;15.50;51.10;;;;;;4200473;28;20064;-61
2022/02/12 10:07:50;;;;;;;10.85;4.20;;;15.40;51.20;;;;;;4195336;28;20051;-60
2022/02/12 10:10:15;;;;;;;10.38;3.75;;;15.30;51.30;;;;;;4212818;28;20561;-60
2022/02/12 10:12:37;;;;;;;10.00;3.50;;;15.20;51.50;;;;;;4214973;28;20054;-60
2022/02/12 10:14:59;;;;;;;2.20;2.10;;;15.10;51.70;;;;;;4217795;27;20170;-60
2022/02/12 10:17:24;;;;;;;4.40;2.95;;;15.10;52.60;;;;;;4215994;28;20471;-60
2022/02/12 10:19:47;;;;;;;6.85;3.80;;;15.10;51.70;;;;;;4195288;28;20072;-60
2022/02/12 10:22:12;;;;;;;6.05;2.60;;;15.20;51.30;;;;;;4198725;28;20055;-61
2022/02/12 10:24:46;;;;;;;8.10;3.30;;;15.20;50.90;;;;;;4195228;28;20087;-60
2022/02/12 10:27:09;;;;;;;5.80;3.58;;;15.30;50.60;;;;;;4194791;28;20056;-60
2022/02/12 10:29:31;;;;;;;5.70;2.65;;;15.50;50.30;;;;;;4194967;28;20152;-60
2022/02/12 10:32:02;;;;;;;8.55;3.13;;;15.60;49.80;;;;;;4194784;28;20044;-60
2022/02/12 10:34:24;;;;;;;8.88;2.85;;;15.70;49.40;;;;;;4195425;28;20148;-59
2022/02/12 10:36:47;;;;;;;6.85;2.67;;;15.80;49.00;;;;;;4193882;27;20044;-60
2022/02/12 10:39:10;;;;;;;3.60;2.50;;;15.80;48.50;;;;;;4194924;28;20048;-60
2022/02/12 10:41:32;;;;;;;9.50;2.90;;;15.90;48.30;;;;;;4210184;27;20099;-60
2022/02/12 10:43:57;;;;;;;5.15;1.52;;;15.90;47.80;;;;;;4215769;28;20127;-60
2022/02/12 10:46:21;;;;;;;6.50;3.42;;;16.00;48.50;;;;;;4206309;28;20044;-60
2022/02/12 10:48:43;;;;;;;7.35;3.00;;;16.10;47.40;;;;;;4206983;28;20147;-60
2022/02/12 10:51:07;;;;;;;3.33;1.67;;;16.20;47.10;;;;;;4214309;27;20058;-60
2022/02/12 10:53:29;;;;;;;5.97;2.67;;;16.30;46.90;;;;;;4225328;28;20463;-60
2022/02/12 10:55:59;;;;;;;8.70;2.90;;;16.30;46.70;;;;;;4177746;28;20048;-60
2022/02/12 10:58:21;;;;;;;9.85;3.38;;;16.30;46.90;;;;;;4226555;28;20051;-60
2022/02/12 11:00:45;;;;;;;6.18;2.65;;;16.30;46.70;;;;;;4225631;27;20514;-60
2022/02/12 11:03:10;;;;;;;8.88;2.13;;;16.30;46.70;;;;;;4200462;28;20388;-61
2022/02/12 11:05:35;;;;;;;6.95;2.90;;;16.30;46.70;;;;;;4194184;28;20127;-60
2022/02/12 11:07:58;;;;;;;3.78;1.92;;;16.20;46.50;;;;;;4196413;28;20052;-61
2022/02/12 11:10:20;;;;;;;4.15;1.80;;;16.30;46.40;;;;;;4194223;28;20075;-62
2022/02/12 11:12:43;;;;;;;4.50;2.45;;;16.30;46.10;;;;;;4212720;28;20058;-60
2022/02/12 11:15:07;;;;;;;7.07;2.72;;;16.40;46.00;;;;;;4177449;28;20503;-61
2022/02/12 11:17:51;;;;;;;11.20;3.30;;;16.40;45.90;;;;;;4202801;28;20078;-60
2022/02/12 11:20:14;;;;;;;7.45;3.17;;;16.40;46.00;;;;;;4194422;28;20564;-60
2022/02/12 11:22:36;;;;;;;5.80;2.58;;;16.40;46.10;;;;;;4209201;28;20050;-60
2022/02/12 11:24:58;;;;;;;5.88;2.53;;;16.30;46.10;;;;;;4196712;28;20465;-61
2022/02/12 11:27:22;;;;;;;8.32;3.10;;;16.30;45.90;;;;;;4192759;28;20517;-60
2022/02/12 11:29:45;;;;;;;5.80;1.75;;;16.20;45.80;;;;;;4195165;28;20055;-60
2022/02/12 11:32:09;;;;;;;8.32;3.30;;;16.20;45.90;;;;;;4199067;28;20552;-61
2022/02/12 11:34:33;;;;;;;10.82;2.95;;;16.10;45.90;;;;;;4204036;28;20488;-60
2022/02/12 11:37:13;;;;;;;9.05;3.22;;;16.10;45.90;;;;;;4211140;27;20565;-60
2022/02/12 11:39:35;;;;;;;10.75;3.20;;;16.10;45.90;;;;;;4223927;28;20055;-61
2022/02/12 11:42:04;;;;;;;7.93;2.25;;;16.10;46.00;;;;;;4208519;28;20055;-60
2022/02/12 11:44:43;;;;;;;9.77;2.60;;;16.10;46.20;;;;;;4218703;27;20093;-60
2022/02/12 11:47:07;;;;;;;9.60;3.17;;;16.10;46.30;;;;;;4217720;28;20051;-60
2022/02/12 11:49:30;;;;;;;6.97;2.50;;;16.00;46.40;;;;;;4216526;28;20051;-60
2022/02/12 11:51:55;;;;;;;12.52;3.35;;;16.00;46.70;;;;;;4211799;28;20108;-60
2022/02/12 11:54:56;;;;;;;6.57;1.83;;;16.00;46.70;;;;;;4222459;28;20054;-60
2022/02/12 11:57:38;;;;;;;6.75;2.00;;;16.10;46.60;;;;;;4226690;27;20494;-62
2022/02/12 12:00:35;;;;;;;10.35;2.80;;;16.20;47.00;;;;;;4193596;28;20380;-62
2022/02/12 12:03:05;;;;;;;6.95;1.63;;;16.40;46.10;;;;;;4224288;27;20075;-61
2022/02/12 12:05:27;;;;;;;5.93;2.47;;;16.60;45.80;;;;;;4208544;28;20058;-62
2022/02/12 12:08:12;;;;;;;9.68;3.50;;;16.70;45.70;;;;;;4210193;28;20126;-62
2022/02/12 12:10:36;;;;;;;7.78;2.30;;;16.80;45.50;;;;;;4213453;28;20058;-64
2022/02/12 12:13:00;;;;;;;8.20;3.80;;;17.00;46.50;;;;;;4226812;27;20058;-64
2022/02/12 12:15:26;;;;;;;9.20;3.30;;;17.10;47.10;;;;;;4226868;27;20391;-64
2022/02/12 12:18:01;;;;;;;12.70;3.83;;;17.30;47.20;;;;;;4217609;28;20055;-64
2022/02/12 12:20:33;;;;;;;14.52;4.03;;;17.40;47.20;;;;;;4214171;28;20468;-64
2022/02/12 12:23:01;;;;;;;9.73;3.85;;;17.40;47.40;;;;;;4224808;27;20044;-64
2022/02/12 12:25:24;;;;;;;5.55;1.85;;;17.40;47.70;;;;;;4225505;27;20055;-64
2022/02/12 12:27:52;;;;;;;8.93;3.13;;;17.50;48.10;;;;;;4207361;28;20059;-64
2022/02/12 12:32:56;;;;;;;7.82;3.10;;;17.60;48.30;;;;;;4212414;27;20059;-66